Time;durP1;ratioP1;P1;durP2;ratioP2;P2;SDS_P1;SDS_P2;PMS_P1;PMS_P2;Temp;Humidity;BMP_temperature;BMP_pressure;BME280_temperature;BME280_humidity;BME280_pressure;Samples;Min_cycle;Max_cycle;Signal;HPM_P1;HPM_P2
2022/02/04 00:20:27;;;;;;;82.43;26.10;;;;;;;6.36;100.00;100004.84;5033948;28;20048;-79
2022/02/04 00:28:12;;;;;;;64.70;22.75;;;;;;;6.36;100.00;99978.13;5035501;28;20034;-79
2022/02/04 00:30:44;;;;;;;84.40;25.45;;;;;;;6.34;100.00;99974.81;5019647;28;20084;-80
2022/02/04 00:33:11;;;;;;;75.93;24.40;;;;;;;6.28;100.00;99965.69;5033654;28;20102;-78
2022/02/04 00:40:41;;;;;;;74.55;22.88;;;;;;;6.42;100.00;99993.34;5036669;28;20041;-79
2022/02/04 00:43:10;;;;;;;75.72;23.33;;;;;;;6.40;100.00;99990.06;5034421;28;20013;-79
2022/02/04 00:45:50;;;;;;;76.32;22.60;;;;;;;6.39;100.00;99980.41;5019510;28;20051;-80
2022/02/04 00:51:10;;;;;;;75.03;23.48;;;;;;;6.37;100.00;99974.41;5035258;28;20461;-79
2022/02/04 01:26:11;;;;;;;57.47;18.38;;;;;;;6.22;100.00;99933.59;5039631;28;20078;-78
2022/02/04 01:28:39;;;;;;;69.30;21.33;;;;;;;6.28;100.00;99932.81;5036395;28;20367;-79
2022/02/04 01:31:07;;;;;;;66.03;19.58;;;;;;;6.28;100.00;99930.16;5033714;28;20045;-79
2022/02/04 01:33:33;;;;;;;63.88;18.80;;;;;;;6.31;100.00;99922.56;5017006;28;20087;-79
2022/02/04 01:35:59;;;;;;;55.72;17.85;;;;;;;6.30;100.00;99915.59;5033946;28;20091;-79
2022/02/04 01:38:27;;;;;;;58.97;18.13;;;;;;;6.14;100.00;99893.66;5031613;28;20033;-79
2022/02/04 01:40:54;;;;;;;62.92;18.20;;;;;;;6.30;100.00;99918.25;5032965;28;20094;-79
2022/02/04 01:43:22;;;;;;;55.95;16.50;;;;;;;6.29;100.00;99907.75;5029924;28;20026;-79
2022/02/04 01:45:52;;;;;;;53.30;16.13;;;;;;;6.27;100.00;99899.13;5035398;28;20467;-79
2022/02/04 01:48:17;;;;;;;58.40;16.05;;;;;;;6.27;100.00;99899.13;5033364;28;20040;-78
2022/02/04 01:50:46;;;;;;;51.70;15.88;;;;;;;6.28;100.00;99906.09;5016522;28;20036;-80
2022/02/04 01:53:13;;;;;;;47.15;14.07;;;;;;;6.25;100.00;99890.47;5014187;28;20030;-79
2022/02/04 01:55:41;;;;;;;49.92;15.50;;;;;;;6.23;100.00;99890.66;5030148;28;20116;-79
2022/02/04 01:58:08;;;;;;;46.50;14.05;;;;;;;6.19;100.00;99880.53;5034136;28;20053;-79
2022/02/04 02:00:33;;;;;;;48.70;15.50;;;;;;;6.21;100.00;99884.69;5029938;28;20036;-79
2022/02/04 02:02:58;;;;;;;50.63;15.35;;;;;;;5.95;100.00;99855.06;4998282;28;20042;-79
2022/02/04 02:05:24;;;;;;;57.60;16.25;;;;;;;6.08;100.00;99873.88;5012803;28;20037;-79
2022/02/04 02:07:49;;;;;;;54.15;16.98;;;;;;;6.14;100.00;99877.63;5022122;28;20022;-79
2022/02/04 02:10:18;;;;;;;48.65;16.55;;;;;;;6.11;100.00;99882.34;5033227;28;20037;-79
2022/02/04 02:13:00;;;;;;;46.75;14.45;;;;;;;6.08;100.00;99882.72;5031328;28;20022;-80
2022/02/04 02:15:49;;;;;;;50.67;14.70;;;;;;;6.10;100.00;99878.03;5033009;28;20021;-79
2022/02/04 02:56:41;;;;;;;39.03;12.65;;;;;;;6.05;100.00;99789.63;5032234;28;20029;-79
2022/02/04 02:59:01;;;;;;;38.20;13.38;;;;;;;5.99;100.00;99786.91;5017289;28;20037;-79
2022/02/04 03:01:28;;;;;;;36.20;12.23;;;;;;;6.04;100.00;99781.81;4999932;28;20025;-79
2022/02/04 03:03:56;;;;;;;38.22;13.25;;;;;;;6.07;100.00;99781.44;5032283;28;20336;-79
2022/02/04 03:06:22;;;;;;;36.97;14.05;;;;;;;6.07;100.00;99784.94;5023547;28;20451;-79
2022/02/04 03:08:48;;;;;;;35.85;13.70;;;;;;;6.09;100.00;99777.56;5032942;28;20029;-79
2022/02/04 03:11:14;;;;;;;42.63;14.90;;;;;;;6.07;100.00;99773.44;5026469;28;20091;-79
2022/02/04 03:13:42;;;;;;;42.50;14.40;;;;;;;6.11;100.00;99759.47;5006084;28;20470;-79
2022/02/04 03:16:10;;;;;;;45.90;15.75;;;;;;;6.13;100.00;99748.63;5018801;28;20025;-79
2022/02/04 03:18:39;;;;;;;48.20;15.77;;;;;;;6.08;100.00;99729.66;5032239;28;20124;-78
2022/02/04 03:21:11;;;;;;;44.85;15.02;;;;;;;6.11;100.00;99723.94;5030204;28;20044;-79
2022/02/04 03:23:39;;;;;;;52.13;16.92;;;;;;;6.11;100.00;99731.94;5024269;28;20060;-77
2022/02/04 03:26:20;;;;;;;49.25;16.00;;;;;;;6.06;100.00;99727.22;5015903;28;20045;-79
2022/02/04 03:28:46;;;;;;;42.25;15.48;;;;;;;6.11;100.00;99730.09;5032336;28;20437;-79
2022/02/04 03:31:12;;;;;;;47.03;16.08;;;;;;;6.13;100.00;99726.44;5015476;28;20128;-80
2022/02/04 03:33:39;;;;;;;50.10;15.85;;;;;;;6.09;100.00;99710.78;5031266;28;20040;-79
2022/02/04 03:36:05;;;;;;;46.00;14.73;;;;;;;6.08;100.00;99708.31;5015683;28;20057;-79
2022/02/04 03:38:30;;;;;;;35.95;14.95;;;;;;;6.05;100.00;99698.00;5013861;28;20430;-79
2022/02/04 03:40:56;;;;;;;39.70;14.35;;;;;;;6.06;100.00;99694.31;5032955;28;20090;-79
2022/02/04 03:43:21;;;;;;;37.38;14.45;;;;;;;6.04;100.00;99699.88;5028593;28;20033;-79
2022/02/04 03:45:47;;;;;;;44.22;14.65;;;;;;;6.03;100.00;99689.38;5032474;28;20096;-79
2022/02/04 03:48:12;;;;;;;41.13;14.27;;;;;;;6.11;100.00;99713.25;5014563;28;20029;-78
2022/02/04 03:50:37;;;;;;;41.85;14.23;;;;;;;6.13;100.00;99691.72;5031838;28;20121;-78
2022/02/04 03:53:03;;;;;;;44.65;14.93;;;;;;;6.10;100.00;99696.41;5015003;28;20171;-79
2022/02/04 03:55:29;;;;;;;40.97;14.40;;;;;;;6.09;100.00;99681.41;5031778;28;20026;-79
2022/02/04 03:57:54;;;;;;;43.15;15.32;;;;;;;6.12;100.00;99696.19;5035845;28;20040;-79
2022/02/04 04:00:20;;;;;;;39.28;15.10;;;;;;;6.13;100.00;99683.69;5033248;28;20040;-78
2022/02/04 04:02:47;;;;;;;39.60;14.30;;;;;;;6.08;100.00;99674.41;5034398;28;20041;-79
2022/02/04 04:05:13;;;;;;;47.33;16.10;;;;;;;6.05;100.00;99674.78;5034884;28;20026;-79
2022/02/04 04:07:46;;;;;;;48.05;16.08;;;;;;;6.02;100.00;99691.22;5037146;28;20025;-79
2022/02/04 04:10:19;;;;;;;59.65;17.17;;;;;;;6.01;100.00;99680.75;5035449;28;20109;-79
2022/02/04 04:12:44;;;;;;;46.85;16.98;;;;;;;5.97;100.00;99676.81;5035359;28;20033;-79
2022/02/04 04:15:10;;;;;;;48.20;17.48;;;;;;;5.92;100.00;99672.03;5035497;28;20430;-79
2022/02/04 04:17:42;;;;;;;50.95;18.48;;;;;;;5.98;100.00;99681.94;5034492;28;20439;-78
2022/02/04 04:20:10;;;;;;;49.50;17.88;;;;;;;5.91;100.00;99645.53;5020376;28;20060;-78
2022/02/04 04:22:36;;;;;;;48.53;17.90;;;;;;;5.92;100.00;99677.38;5036005;28;20470;-80
2022/02/04 04:25:03;;;;;;;51.50;18.60;;;;;;;5.93;100.00;99667.53;5037022;28;20037;-79
2022/02/04 04:27:29;;;;;;;50.72;17.45;;;;;;;5.89;100.00;99662.59;5017816;28;20018;-79
2022/02/04 04:29:54;;;;;;;52.67;16.67;;;;;;;5.89;100.00;99680.41;5034219;28;20069;-79
2022/02/04 04:32:20;;;;;;;51.38;17.10;;;;;;;5.77;100.00;99661.47;5033441;28;20025;-80
2022/02/04 04:34:45;;;;;;;50.25;17.08;;;;;;;5.94;100.00;99675.38;5019215;28;20045;-79
2022/02/04 04:37:10;;;;;;;53.75;17.08;;;;;;;5.89;100.00;99667.06;5033852;28;20501;-78
2022/02/04 04:39:39;;;;;;;48.72;16.67;;;;;;;5.95;100.00;99682.34;5002435;28;20045;-79
2022/02/04 04:42:15;;;;;;;42.08;15.75;;;;;;;5.94;100.00;99679.88;5018562;28;20053;-79
2022/02/04 05:28:42;;;;;;;41.78;13.60;;;;;;;5.89;100.00;99619.00;5033749;28;20033;-79
2022/02/04 05:31:08;;;;;;;41.15;12.85;;;;;;;5.89;100.00;99611.00;5020198;28;20053;-79
2022/02/04 05:33:33;;;;;;;45.92;13.10;;;;;;;5.89;100.00;99611.00;5034717;28;20130;-79
2022/02/04 05:36:00;;;;;;;40.90;12.82;;;;;;;5.93;100.00;99622.16;5036800;28;20112;-78
2022/02/04 05:38:27;;;;;;;43.80;12.82;;;;;;;5.86;100.00;99601.56;5033417;28;20029;-78
2022/02/04 05:40:53;;;;;;;48.58;13.80;;;;;;;5.94;100.00;99605.94;5020531;28;20033;-79
2022/02/04 05:43:25;;;;;;;44.28;13.20;;;;;;;5.92;100.00;99601.78;5023199;28;20029;-78
2022/02/04 05:46:10;;;;;;;54.13;13.98;;;;;;;5.93;100.00;99592.78;5037213;28;20043;-79
2022/02/04 05:48:40;;;;;;;41.95;12.45;;;;;;;5.86;100.00;99582.88;5033957;28;20021;-79
2022/02/04 05:58:59;;;;;;;47.67;14.40;;;;;;;5.85;100.00;99557.19;5018362;28;20041;-79
2022/02/04 06:22:25;;;;;;;50.95;14.20;;;;;;;5.93;100.00;99537.56;5033686;28;20039;-79
2022/02/04 06:24:52;;;;;;;47.40;15.05;;;;;;;5.94;100.00;99539.19;5032181;28;20516;-79
2022/02/04 06:27:21;;;;;;;37.90;13.68;;;;;;;5.88;100.00;99529.28;5033861;28;20017;-79
2022/02/04 06:29:48;;;;;;;44.40;13.85;;;;;;;5.89;100.00;99528.25;5034166;28;20057;-78
2022/02/04 06:32:16;;;;;;;48.72;15.32;;;;;;;5.82;100.00;99520.22;5032146;28;20135;-80
2022/02/04 06:34:42;;;;;;;42.25;13.98;;;;;;;5.87;100.00;99514.28;5034197;28;20017;-79
2022/02/04 06:37:07;;;;;;;47.03;12.75;;;;;;;5.93;100.00;99515.34;5034342;28;20036;-80
2022/02/04 06:39:33;;;;;;;42.05;14.18;;;;;;;5.92;100.00;99521.69;5032220;28;20021;-80
2022/02/04 06:41:58;;;;;;;43.83;13.35;;;;;;;5.86;100.00;99518.81;5035552;28;20018;-80
2022/02/04 06:44:24;;;;;;;42.03;13.57;;;;;;;5.80;100.00;99502.78;5037051;28;20466;-80
2022/02/04 06:46:49;;;;;;;54.35;14.65;;;;;;;5.85;100.00;99516.31;5040661;28;20037;-79
2022/02/04 06:49:14;;;;;;;44.10;13.82;;;;;;;5.92;100.00;99514.50;5032299;28;20021;-80
2022/02/04 06:51:40;;;;;;;58.08;14.68;;;;;;;5.80;100.00;99494.78;5036637;28;20025;-82
2022/02/04 06:54:05;;;;;;;48.42;14.32;;;;;;;5.95;100.00;99505.31;5037000;28;20041;-79
2022/02/04 06:56:34;;;;;;;48.58;15.13;;;;;;;5.90;100.00;99508.56;5034242;28;20045;-80
2022/02/04 06:59:00;;;;;;;55.20;16.30;;;;;;;5.95;100.00;99505.31;5030451;28;20471;-79
2022/02/04 07:01:27;;;;;;;53.03;15.40;;;;;;;5.89;100.00;99491.72;5017285;28;20033;-80
2022/02/04 07:03:52;;;;;;;54.85;14.90;;;;;;;5.86;100.00;99488.59;5037508;28;20550;-80
2022/02/04 07:06:19;;;;;;;56.17;16.35;;;;;;;5.82;100.00;99471.34;5034776;28;20057;-81
2022/02/04 07:11:47;;;;;;;49.63;16.80;;;;;;;5.97;100.00;99488.06;5033647;28;20033;-78
2022/02/04 07:21:29;;;;;;;59.75;20.33;;;;;;;6.01;100.00;99478.63;5035554;28;20518;-79
2022/02/04 07:23:54;;;;;;;64.15;18.23;;;;;;;5.93;100.00;99462.81;5014547;28;20042;-78
2022/02/04 07:26:20;;;;;;;67.70;20.00;;;;;;;6.01;100.00;99469.78;5025974;28;20071;-78
2022/02/04 07:28:45;;;;;;;57.50;19.73;;;;;;;5.99;100.00;99469.97;5026698;28;20033;-79
2022/02/04 07:31:13;;;;;;;62.30;18.70;;;;;;;5.99;100.00;99458.47;5033196;28;20061;-79
2022/02/04 07:33:45;;;;;;;66.35;20.33;;;;;;;5.98;100.00;99459.50;5033863;28;20091;-79
2022/02/04 07:40:52;;;;;;;67.75;20.35;;;;;;;5.99;100.00;99451.28;5032664;28;20049;-79
2022/02/04 07:41:34;;;;;;;69.50;20.40;;;;;;;6.07;100.00;99469.00;5034726;28;20435;-79
2022/02/04 07:44:00;;;;;;;70.53;20.48;;;;;;;6.02;100.00;99455.41;5035130;28;20025;-79
2022/02/04 07:46:26;;;;;;;60.33;19.30;;;;;;;6.05;100.00;99450.47;5017902;28;20428;-79
2022/02/04 07:48:51;;;;;;;65.40;19.75;;;;;;;6.04;100.00;99464.06;5031121;28;20108;-79
2022/02/04 07:51:17;;;;;;;69.97;19.20;;;;;;;6.03;100.00;99443.72;5033531;28;20037;-79
2022/02/04 07:53:43;;;;;;;56.45;18.30;;;;;;;6.04;100.00;99440.84;5035168;28;20060;-79
2022/02/04 07:56:08;;;;;;;73.35;19.85;;;;;;;6.08;100.00;99452.75;5035757;28;20061;-85
2022/02/04 07:58:34;;;;;;;75.70;21.48;;;;;;;6.07;100.00;99456.44;5036985;28;20041;-85
2022/02/04 08:01:02;;;;;;;70.78;20.00;;;;;;;6.01;100.00;99441.25;5018802;28;20029;-86
2022/02/04 08:06:06;;;;;;;61.97;19.63;;;;;;;6.02;100.00;99434.88;5057024;28;20037;-82
2022/02/04 08:29:45;;;;;;;64.95;19.23;;;;;;;6.10;100.00;99429.34;5055774;28;20089;-85
2022/02/04 08:56:00;;;;;;;51.63;17.35;;;;;;;6.15;100.00;99409.22;5045162;28;20036;-83
2022/02/04 09:03:29;;;;;;;45.25;16.67;;;;;;;6.09;100.00;99393.00;5043944;28;20060;-88
2022/02/04 09:06:07;;;;;;;51.78;16.02;;;;;;;6.16;100.00;99406.34;5037515;28;20036;-89
2022/02/04 09:08:36;;;;;;;49.58;17.20;;;;;;;6.13;100.00;99398.75;5058010;28;20026;-85
2022/02/04 09:11:05;;;;;;;51.03;17.42;;;;;;;6.07;100.00;99395.03;5058100;28;20021;-88
2022/02/04 09:19:02;;;;;;;43.05;14.68;;;;;;;6.16;100.00;99397.50;5039279;28;20017;-85
2022/02/04 09:24:23;;;;;;;42.20;14.88;;;;;;;6.16;100.00;99393.00;5005553;28;20039;-87
2022/02/04 09:26:51;;;;;;;35.30;11.63;;;;;;;6.22;100.00;99402.03;5038930;28;20109;-89
2022/02/04 09:29:16;;;;;;;39.38;13.15;;;;;;;6.25;100.00;99393.59;5039145;28;20013;-88
2022/02/04 09:31:42;;;;;;;45.13;14.05;;;;;;;6.11;100.00;99380.25;5020918;28;20034;-88
2022/02/04 09:34:08;;;;;;;38.33;14.68;;;;;;;6.25;100.00;99406.94;5038997;28;20093;-88
2022/02/04 09:36:34;;;;;;;46.08;14.13;;;;;;;6.27;100.00;99408.41;5037808;28;20037;-86
2022/02/04 09:38:59;;;;;;;45.55;14.23;;;;;;;6.22;100.00;99404.69;5048273;28;20025;-81
2022/02/04 09:41:26;;;;;;;41.70;13.93;;;;;;;6.29;100.00;99422.38;5038534;28;20065;-84
2022/02/04 09:43:53;;;;;;;44.05;13.27;;;;;;;6.25;100.00;99414.97;5054239;28;20025;-87
2022/02/04 09:46:19;;;;;;;36.53;11.88;;;;;;;6.27;100.00;99437.78;5028273;28;20010;-84
2022/02/04 09:48:50;;;;;;;21.38;6.28;;;;;;;6.22;100.00;99452.75;5583293;22;20057;-89
2022/02/04 09:51:21;;;;;;;20.40;3.00;;;;;;;5.39;100.00;99346.22;5057557;28;20034;-89
2022/02/04 10:07:51;;;;;;;24.60;1.73;;;;;;;5.13;100.00;99361.13;5057452;28;20034;-88
2022/02/04 10:18:28;;;;;;;15.05;1.77;;;;;;;4.76;100.00;99319.75;5053559;28;20053;-89
2022/02/04 10:21:02;;;;;;;13.85;1.15;;;;;;;5.08;100.00;99360.06;5058210;28;20033;-89
2022/02/04 10:23:52;;;;;;;9.38;0.85;;;;;;;5.12;100.00;99378.13;5039971;28;20025;-88
2022/02/04 10:26:19;;;;;;;12.70;1.20;;;;;;;4.77;100.00;99328.56;5036067;28;20022;-89
2022/02/04 10:28:46;;;;;;;8.60;0.73;;;;;;;4.78;100.00;99322.22;5055941;28;20078;-89
2022/02/04 10:31:20;;;;;;;8.07;0.73;;;;;;;5.28;100.00;99389.50;5043947;28;20057;-91
2022/02/04 10:33:52;;;;;;;;;;;;;;;5.50;100.00;99433.69;5037896;28;20006;-89
2022/02/04 10:39:51;;;;;;;5.70;0.70;;;;;;;5.51;100.00;99435.34;5045459;28;20041;-89
2022/02/04 11:44:13;;;;;;;12.88;2.17;;;;;;;5.83;100.00;99393.75;5335532;22;20068;-89
2022/02/04 11:52:30;;;;;;;10.73;2.67;;;;;;;5.96;100.00;99390.31;5054281;28;20040;-87
2022/02/04 11:55:19;;;;;;;10.68;4.10;;;;;;;5.08;100.00;99258.78;5048056;28;20026;-86
2022/02/04 11:57:56;;;;;;;8.05;3.08;;;;;;;5.18;100.00;99240.53;5044262;28;20077;-90
2022/02/04 12:00:31;;;;;;;14.27;4.03;;;;;;;5.18;100.00;99261.88;5051132;28;20052;-85
2022/02/04 12:02:58;;;;;;;14.25;5.25;;;;;;;5.39;100.00;99280.34;5055464;28;20026;-89
2022/02/04 12:05:23;;;;;;;22.30;6.88;;;;;;;5.62;100.00;99314.66;5055092;28;20455;-88
2022/02/04 12:08:30;;;;;;;8.10;2.38;;;;;;;5.14;100.00;99242.78;5055374;28;20022;-89
2022/02/04 12:11:18;;;;;;;10.85;2.97;;;;;;;5.43;100.00;99283.47;5055532;28;20010;-89
2022/02/04 12:14:09;;;;;;;13.20;4.22;;;;;;;6.05;100.00;99373.03;5055660;28;20014;-88
2022/02/04 12:16:57;;;;;;;15.18;1.67;;;;;;;5.33;100.00;99277.69;5055096;28;20018;-88
2022/02/04 12:19:37;;;;;;;12.07;1.25;;;;;;;4.96;100.00;99242.53;5039755;28;20014;-88
2022/02/04 12:22:03;;;;;;;11.50;1.13;;;;;;;4.79;100.00;99252.72;5037066;28;20017;-87
2022/02/04 12:24:31;;;;;;;14.27;1.55;;;;;;;5.22;100.00;99305.75;5055297;28;20029;-87
2022/02/04 12:27:30;;;;;;;11.55;1.25;;;;;;;5.62;100.00;99361.88;5057303;28;20029;-89
2022/02/04 12:29:58;;;;;;;9.63;1.38;;;;;;;4.81;100.00;99226.72;5058357;28;20040;-90
2022/02/04 12:32:24;;;;;;;9.30;1.10;;;;;;;5.30;100.00;99316.25;5055157;28;20040;-87
2022/02/04 12:34:50;;;;;;;11.85;1.60;;;;;;;5.64;100.00;99359.84;5055577;28;20029;-87
2022/02/04 12:37:18;;;;;;;9.45;1.58;;;;;;;4.96;100.00;99234.53;5055025;28;20025;-85
2022/02/04 12:39:44;;;;;;;8.32;1.20;;;;;;;5.12;100.00;99260.00;5052401;28;20025;-88
2022/02/04 12:42:13;;;;;;;13.55;1.63;;;;;;;5.14;100.00;99257.97;5054350;28;20040;-87
2022/02/04 12:44:41;;;;;;;7.50;1.30;;;;;;;5.18;100.00;99269.88;5040455;28;20068;-88
2022/02/04 12:47:18;;;;;;;10.82;1.33;;;;;;;5.74;100.00;99332.75;5035005;28;20022;-89
2022/02/04 12:49:52;;;;;;;12.05;1.40;;;;;;;5.28;100.00;99264.13;5047101;28;20055;-88
2022/02/04 12:57:33;;;;;;;8.55;0.95;;;;;;;4.90;100.00;99219.34;5054629;28;20024;-85
2022/02/04 13:03:13;;;;;;;7.82;1.23;;;;;;;4.74;100.00;99191.22;5056750;28;20044;-88
2022/02/04 13:11:13;;;;;;;8.35;1.40;;;;;;;4.78;100.00;99183.66;5055001;28;20044;-88
2022/02/04 13:13:47;;;;;;;11.57;1.25;;;;;;;4.84;100.00;99191.66;5052447;28;20037;-88
2022/02/04 13:16:19;;;;;;;14.73;1.80;;;;;;;5.71;100.00;99317.97;5047410;28;20081;-88
2022/02/04 13:18:45;;;;;;;6.70;1.15;;;;;;;4.74;100.00;99182.41;5048341;28;20029;-82
2022/02/04 13:21:13;;;;;;;8.05;1.17;;;;;;;4.79;100.00;99174.63;5049946;28;20040;-88
2022/02/04 13:23:40;;;;;;;10.13;1.02;;;;;;;5.08;100.00;99224.09;5046120;28;20029;-88
2022/02/04 13:26:06;;;;;;;8.30;1.20;;;;;;;4.75;100.00;99168.06;5047047;28;20026;-89
2022/02/04 13:28:37;;;;;;;11.55;1.50;;;;;;;5.49;100.00;99289.81;5053221;28;20485;-88
2022/02/04 13:31:06;;;;;;;10.38;1.30;;;;;;;4.68;100.00;99176.03;5053197;28;20080;-88
2022/02/04 13:33:41;;;;;;;9.45;1.48;;;;;;;5.14;100.00;99274.78;5047049;28;20009;-87
2022/02/04 13:36:31;;;;;;;7.55;1.15;;;;;;;5.51;100.00;99307.28;5048793;28;20018;-88
2022/02/04 13:39:09;;;;;;;7.60;1.20;;;;;;;5.47;100.00;99315.88;5053492;28;20050;-88
2022/02/04 13:44:37;;;;;;;7.38;1.00;;;;;;;4.34;100.00;99193.75;5046211;28;20042;-87
2022/02/04 13:58:08;;;;;;;6.10;0.60;;;;;;;3.84;100.00;99174.47;5053304;28;20049;-86
2022/02/04 14:03:31;;;;;;;9.75;2.83;;;;;;;3.87;100.00;99186.53;5051724;28;20041;-84
2022/02/04 14:06:24;;;;;;;;;;;;;;;4.71;100.00;99325.66;5054284;28;20051;-86
2022/02/04 14:09:05;;;;;;;5.35;1.00;;;;;;;4.11;100.00;99235.81;5051943;28;19924;-88
2022/02/04 14:11:36;;;;;;;7.97;1.00;;;;;;;4.62;100.00;99320.69;5053109;28;20041;-88
2022/02/04 14:14:26;;;;;;;5.80;1.10;;;;;;;4.51;100.00;99290.13;5047589;28;20013;-87
2022/02/04 14:16:53;;;;;;;11.13;1.08;;;;;;;4.63;100.00;99317.00;5037384;28;20022;-88
2022/02/04 14:19:20;;;;;;;6.50;1.05;;;;;;;3.51;100.00;99153.78;5055726;28;20081;-87
2022/02/04 14:21:46;;;;;;;7.07;0.90;;;;;;;3.68;100.00;99196.84;5055249;28;20012;-86
2022/02/04 14:24:13;;;;;;;7.57;1.17;;;;;;;3.84;100.00;99217.03;5056783;28;20033;-87
2022/02/04 14:26:44;;;;;;;10.27;1.20;;;;;;;3.66;100.00;99203.38;5047851;28;20101;-88
2022/02/04 14:29:17;;;;;;;8.45;1.20;;;;;;;3.65;100.00;99217.72;5053743;28;20081;-86
2022/02/04 14:31:54;;;;;;;7.80;1.30;;;;;;;3.67;100.00;99224.44;5054037;28;20032;-88
2022/02/04 14:58:46;;;;;;;13.40;1.80;;;;;;;3.80;100.00;99305.38;5047647;28;20045;-86
2022/02/04 15:01:24;;;;;;;12.02;1.30;;;;;;;3.23;100.00;99222.03;5046264;28;20057;-86
2022/02/04 15:04:01;;;;;;;8.85;1.27;;;;;;;2.91;100.00;99148.97;5049275;28;20021;-87
2022/02/04 15:06:37;;;;;;;13.45;1.60;;;;;;;3.90;100.00;99297.91;5034012;28;20022;-85
2022/02/04 15:09:13;;;;;;;14.60;1.42;;;;;;;3.92;100.00;99269.25;5043677;28;20022;-84
2022/02/04 15:11:44;;;;;;;8.40;1.15;;;;;;;3.98;100.00;99269.31;5048854;28;20005;-88
2022/02/04 15:14:11;;;;;;;16.00;1.88;;;;;;;3.13;100.00;99124.03;5051594;28;20047;-86
2022/02/04 15:16:38;;;;;;;8.73;1.08;;;;;;;3.99;100.00;99259.47;5054542;28;20049;-85
2022/02/04 15:19:04;;;;;;;12.55;1.15;;;;;;;3.39;100.00;99167.78;5056121;28;20053;-87
2022/02/04 15:21:31;;;;;;;12.38;1.85;;;;;;;3.05;100.00;99116.22;5047955;28;20025;-87
2022/02/04 15:23:58;;;;;;;13.10;1.27;;;;;;;3.35;100.00;99155.91;5052933;28;20463;-86
2022/02/04 15:26:27;;;;;;;16.52;1.80;;;;;;;3.28;100.00;99159.34;5047371;28;20056;-83
2022/02/04 15:28:59;;;;;;;12.85;1.60;;;;;;;3.37;100.00;99159.19;5048732;28;20033;-83
2022/02/04 15:34:11;;;;;;;10.95;2.97;;;;;;;3.48;100.00;99182.59;5047801;28;20052;-87
2022/02/04 15:36:44;;;;;;;14.18;4.50;;;;;;;3.32;100.00;99159.78;5047969;28;20021;-82
2022/02/04 15:39:19;;;;;;;12.65;2.17;;;;;;;2.92;100.00;99090.34;5051398;28;20443;-87
2022/02/04 15:41:51;;;;;;;15.20;1.40;;;;;;;3.07;100.00;99095.56;5051149;28;20021;-87
2022/02/04 15:44:35;;;;;;;14.60;2.88;;;;;;;3.08;100.00;99086.59;5045424;28;20049;-82
2022/02/04 15:53:17;;;;;;;15.40;2.42;;;;;;;3.22;100.00;99122.88;5022517;28;20029;-86
2022/02/04 15:58:59;;;;;;;9.55;1.40;;;;;;;3.21;100.00;99123.06;5057133;28;20068;-83
2022/02/04 16:04:25;;;;;;;17.05;1.70;;;;;;;3.15;100.00;99121.19;5029832;28;20034;-88
2022/02/04 16:29:12;;;;;;;13.73;2.30;;;;;;;2.89;100.00;99082.75;4869641;29;20047;-89
2022/02/04 16:31:38;;;;;;;16.83;2.70;;;;;;;3.11;100.00;99127.88;5116701;23;20037;-90
2022/02/04 16:34:09;;;;;;;18.30;1.85;;;;;;;2.91;100.00;99079.91;4979035;23;20037;-88
2022/02/04 16:36:46;;;;;;;14.00;1.70;;;;;;;3.89;100.00;99240.38;4865721;29;20068;-88
2022/02/04 16:39:18;;;;;;;9.23;1.30;;;;;;;3.04;100.00;99118.03;4859748;29;20006;-88
2022/02/04 16:42:02;;;;;;;14.68;1.42;;;;;;;3.21;100.00;99145.16;4851618;29;20014;-86
2022/02/04 16:44:30;;;;;;;18.10;2.65;;;;;;;3.24;100.00;99150.06;4865704;29;20029;-88
2022/02/04 16:49:24;;;;;;;10.48;1.20;;;;;;;2.86;100.00;99104.41;4888924;23;20046;-88
2022/02/04 16:51:50;;;;;;;8.95;1.20;;;;;;;2.81;100.00;99122.72;5042829;24;20070;-88
2022/02/04 16:54:18;;;;;;;5.32;0.77;;;;;;;2.77;100.00;99132.91;4866949;29;20029;-87
2022/02/04 16:56:45;;;;;;;5.15;1.00;;;;;;;2.66;100.00;99121.97;4866881;29;20026;-88
2022/02/04 16:59:11;;;;;;;7.53;1.00;;;;;;;2.46;100.00;99076.66;4867862;29;20055;-88
2022/02/04 17:01:36;;;;;;;4.95;0.70;;;;;;;2.59;100.00;99082.91;4866610;29;20018;-85
2022/02/04 17:04:04;;;;;;;6.18;1.08;;;;;;;3.53;100.00;99233.34;4865840;29;20030;-89
2022/02/04 17:06:35;;;;;;;11.05;1.20;;;;;;;3.56;100.00;99232.97;4868039;29;20014;-89
2022/02/04 17:09:20;;;;;;;8.18;1.17;;;;;;;2.66;100.00;99104.22;4868569;29;20037;-88
2022/02/04 17:11:48;;;;;;;9.43;1.20;;;;;;;2.59;100.00;99092.72;4867499;29;20037;-89
2022/02/04 17:14:15;;;;;;;11.55;1.40;;;;;;;3.08;100.00;99168.97;4867781;29;20085;-88
2022/02/04 17:16:42;;;;;;;9.02;1.05;;;;;;;2.51;100.00;99095.47;4987469;24;20050;-88
2022/02/04 17:21:44;;;;;;;9.07;1.20;;;;;;;2.57;100.00;99095.53;5333166;23;20052;-87
2022/02/04 17:24:13;;;;;;;11.60;2.00;;;;;;;2.76;100.00;99127.78;4868088;29;20043;-90
2022/02/04 17:36:51;;;;;;;13.10;2.00;;;;;;;2.92;100.00;99140.00;4829541;29;20092;-86
2022/02/04 17:39:22;;;;;;;12.40;1.55;;;;;;;2.60;100.00;99099.66;4830631;29;20078;-87
2022/02/04 17:41:51;;;;;;;14.02;2.00;;;;;;;2.61;100.00;99103.94;4830683;29;20043;-85
2022/02/04 17:44:17;;;;;;;21.02;3.05;;;;;;;2.59;100.00;99098.03;4894483;23;20038;-83
2022/02/04 17:46:45;;;;;;;17.63;2.28;;;;;;;2.65;100.00;99089.31;4864288;29;20070;-86
2022/02/04 17:49:33;;;;;;;14.52;2.92;;;;;;;2.72;100.00;99103.47;4867724;29;20044;-88
2022/02/04 17:57:14;;;;;;;18.58;3.50;;;;;;;3.06;100.00;99152.38;4828766;29;20086;-89
2022/02/04 18:07:48;;;;;;;24.42;3.10;;;;;;;2.67;100.00;99083.78;4872457;24;20363;-85
2022/02/04 18:10:14;;;;;;;17.10;2.42;;;;;;;3.73;100.00;99258.25;4984740;23;20058;-85
2022/02/04 18:15:25;;;;;;;24.42;2.95;;;;;;;2.82;100.00;99090.69;5149193;24;20090;-88
2022/02/04 18:17:50;;;;;;;21.77;2.75;;;;;;;3.09;100.00;99143.22;5024868;24;20127;-90
2022/02/04 18:20:16;;;;;;;18.77;2.65;;;;;;;2.91;100.00;99117.09;4866362;29;20038;-89
2022/02/04 18:25:20;;;;;;;26.42;2.83;;;;;;;3.19;100.00;99168.44;5044384;23;20050;-87
2022/02/04 18:27:48;;;;;;;20.00;2.38;;;;;;;2.96;100.00;99123.47;4847187;29;20030;-89
2022/02/04 18:30:16;;;;;;;17.02;2.53;;;;;;;2.73;100.00;99088.34;4848761;29;20018;-90
2022/02/04 18:32:46;;;;;;;18.05;2.33;;;;;;;2.79;100.00;99096.38;4848073;29;20089;-89
2022/02/04 18:48:23;;;;;;;22.88;4.50;;;;;;;3.02;100.00;99090.03;5502132;23;20255;-87
2022/02/04 19:28:33;;;;;;;20.58;2.63;;;;;;;3.34;100.00;99096.56;4830820;29;20050;-90
2022/02/04 19:30:59;;;;;;;19.63;3.17;;;;;;;3.74;100.00;99164.16;4832647;29;20114;-90
2022/02/04 19:43:53;;;;;;;19.25;2.63;;;;;;;3.76;100.00;99156.78;4899224;24;20046;-92
2022/02/04 19:48:57;;;;;;;20.27;2.45;;;;;;;4.10;100.00;99227.00;5135758;24;20042;-90
2022/02/04 19:52:03;;;;;;;15.48;2.00;;;;;;;3.31;100.00;99099.63;5224699;24;20069;-90
2022/02/04 20:26:49;;;;;;;20.13;2.35;;;;;;;3.45;100.00;99148.41;4832577;29;20043;-90
2022/02/04 20:31:50;;;;;;;16.75;2.50;;;;;;;3.18;100.00;99124.28;5184355;24;20013;-87
2022/02/04 20:36:51;;;;;;;13.60;1.98;;;;;;;3.22;100.00;99133.50;5612702;23;20061;-81
2022/02/04 20:39:19;;;;;;;18.63;2.60;;;;;;;4.06;100.00;99249.69;4920887;23;20060;-89
2022/02/04 20:41:45;;;;;;;16.20;2.13;;;;;;;4.09;100.00;99253.81;4883918;29;20028;-88
2022/02/04 20:44:11;;;;;;;23.15;3.10;;;;;;;3.09;100.00;99101.53;4883420;29;20034;-89
2022/02/04 20:46:36;;;;;;;21.92;3.13;;;;;;;3.86;100.00;99233.59;4887020;29;20033;-89
2022/02/04 20:49:07;;;;;;;27.20;3.05;;;;;;;3.58;100.00;99167.13;4931405;23;20129;-86
2022/02/04 20:51:33;;;;;;;18.55;2.83;;;;;;;3.33;100.00;99134.81;4878449;29;20018;-90
2022/02/04 20:53:58;;;;;;;22.65;2.63;;;;;;;3.37;100.00;99141.38;4886272;29;20030;-90
2022/02/04 20:56:24;;;;;;;29.58;5.65;;;;;;;3.17;100.00;99104.03;4886172;29;20089;-91
2022/02/04 20:58:50;;;;;;;26.65;4.13;;;;;;;3.40;100.00;99148.16;4886737;29;20025;-90
2022/02/04 21:01:16;;;;;;;22.67;3.65;;;;;;;3.30;100.00;99141.34;4886683;29;20022;-91
2022/02/04 21:03:42;;;;;;;23.90;3.30;;;;;;;3.41;100.00;99153.28;4886755;29;20028;-91
2022/02/04 21:21:45;;;;;;;17.10;2.30;;;;;;;3.04;100.00;99135.81;5296355;23;20065;-89